sensor_id;sensor_type;location;lat;lon;timestamp;pressure;altitude;pressure_sealevel;temperature;humidity
43745;BME280;29359;53.048;8.732;2022-11-20T00:00:03;101439.06;;;0.18;90.76
43745;BME280;29359;53.048;8.732;2022-11-20T00:02:05;101432.97;;;0.17;90.91
43745;BME280;29359;53.048;8.732;2022-11-20T00:04:08;101433.91;;;0.19;90.77
43745;BME280;29359;53.048;8.732;2022-11-20T00:06:15;101439.09;;;0.19;90.95
43745;BME280;29359;53.048;8.732;2022-11-20T00:08:17;101429.56;;;0.20;91.11
43745;BME280;29359;53.048;8.732;2022-11-20T00:10:18;101427.84;;;0.20;90.85
43745;BME280;29359;53.048;8.732;2022-11-20T00:12:20;101427.09;;;0.24;90.63
43745;BME280;29359;53.048;8.732;2022-11-20T00:14:21;101428.00;;;0.26;90.81
43745;BME280;29359;53.048;8.732;2022-11-20T00:16:24;101426.31;;;0.28;91.08
43745;BME280;29359;53.048;8.732;2022-11-20T00:18:27;101419.44;;;0.30;90.87
43745;BME280;29359;53.048;8.732;2022-11-20T00:20:28;101416.88;;;0.32;91.28
43745;BME280;29359;53.048;8.732;2022-11-20T00:22:30;101420.41;;;0.36;91.29
43745;BME280;29359;53.048;8.732;2022-11-20T00:24:31;101424.72;;;0.35;91.02
43745;BME280;29359;53.048;8.732;2022-11-20T00:26:32;101427.28;;;0.34;91.23
43745;BME280;29359;53.048;8.732;2022-11-20T00:28:34;101420.34;;;0.32;90.75
43745;BME280;29359;53.048;8.732;2022-11-20T00:30:36;101429.88;;;0.34;90.94
43745;BME280;29359;53.048;8.732;2022-11-20T00:32:37;101430.69;;;0.31;90.45
43745;BME280;29359;53.048;8.732;2022-11-20T00:34:39;101423.75;;;0.30;90.89
43745;BME280;29359;53.048;8.732;2022-11-20T00:36:40;101426.38;;;0.31;90.77
43745;BME280;29359;53.048;8.732;2022-11-20T00:38:42;101423.78;;;0.31;91.02
43745;BME280;29359;53.048;8.732;2022-11-20T00:40:44;101422.09;;;0.34;90.49
43745;BME280;29359;53.048;8.732;2022-11-20T00:42:45;101422.16;;;0.37;90.91
43745;BME280;29359;53.048;8.732;2022-11-20T00:44:47;101423.03;;;0.37;90.78
43745;BME280;29359;53.048;8.732;2022-11-20T00:46:48;101412.66;;;0.37;90.78
43745;BME280;29359;53.048;8.732;2022-11-20T00:48:50;101425.66;;;0.39;91.12
43745;BME280;29359;53.048;8.732;2022-11-20T00:50:52;101418.78;;;0.41;91.13
43745;BME280;29359;53.048;8.732;2022-11-20T00:52:53;101417.97;;;0.43;90.90
43745;BME280;29359;53.048;8.732;2022-11-20T00:54:54;101412.75;;;0.42;91.33
43745;BME280;29359;53.048;8.732;2022-11-20T00:56:56;101416.28;;;0.44;91.10
43745;BME280;29359;53.048;8.732;2022-11-20T00:58:59;101418.09;;;0.46;91.31
43745;BME280;29359;53.048;8.732;2022-11-20T01:03:03;101409.44;;;0.47;91.33
43745;BME280;29359;53.048;8.732;2022-11-20T01:05:05;101414.69;;;0.49;91.33
43745;BME280;29359;53.048;8.732;2022-11-20T01:07:06;101407.78;;;0.51;91.56
43745;BME280;29359;53.048;8.732;2022-11-20T01:09:11;101403.50;;;0.53;90.96
43745;BME280;29359;53.048;8.732;2022-11-20T01:11:22;101407.84;;;0.54;91.49
43745;BME280;29359;53.048;8.732;2022-11-20T01:13:24;101406.94;;;0.52;90.91
43745;BME280;29359;53.048;8.732;2022-11-20T01:15:38;101405.19;;;0.51;91.17
43745;BME280;29359;53.048;8.732;2022-11-20T01:17:39;101400.88;;;0.51;91.28
43745;BME280;29359;53.048;8.732;2022-11-20T01:19:41;101401.75;;;0.52;91.18
43745;BME280;29359;53.048;8.732;2022-11-20T01:21:43;101400.88;;;0.51;91.13
43745;BME280;29359;53.048;8.732;2022-11-20T01:23:46;101402.59;;;0.51;90.89
43745;BME280;29359;53.048;8.732;2022-11-20T01:25:48;101394.81;;;0.51;91.22
43745;BME280;29359;53.048;8.732;2022-11-20T01:27:49;101396.63;;;0.55;91.25
43745;BME280;29359;53.048;8.732;2022-11-20T01:29:51;101392.31;;;0.55;91.30
43745;BME280;29359;53.048;8.732;2022-11-20T01:31:58;101392.31;;;0.55;91.62
43745;BME280;29359;53.048;8.732;2022-11-20T01:34:02;101395.78;;;0.56;91.18
43745;BME280;29359;53.048;8.732;2022-11-20T01:36:05;101401.00;;;0.57;91.35
43745;BME280;29359;53.048;8.732;2022-11-20T01:38:07;101393.25;;;0.59;91.40
43745;BME280;29359;53.048;8.732;2022-11-20T01:40:09;101389.75;;;0.58;90.98
43745;BME280;29359;53.048;8.732;2022-11-20T01:42:10;101391.50;;;0.58;90.97
43745;BME280;29359;53.048;8.732;2022-11-20T01:44:53;101390.66;;;0.59;90.88
43745;BME280;29359;53.048;8.732;2022-11-20T01:47:02;101381.97;;;0.58;91.16
43745;BME280;29359;53.048;8.732;2022-11-20T01:49:17;101384.56;;;0.58;91.20
43745;BME280;29359;53.048;8.732;2022-11-20T01:51:24;101382.88;;;0.60;91.36
43745;BME280;29359;53.048;8.732;2022-11-20T01:53:32;101379.41;;;0.60;91.34
43745;BME280;29359;53.048;8.732;2022-11-20T01:55:37;101372.50;;;0.60;91.49
43745;BME280;29359;53.048;8.732;2022-11-20T01:57:41;101371.59;;;0.60;91.51
43745;BME280;29359;53.048;8.732;2022-11-20T01:59:55;101371.66;;;0.61;91.07
43745;BME280;29359;53.048;8.732;2022-11-20T02:01:58;101376.81;;;0.60;90.47
43745;BME280;29359;53.048;8.732;2022-11-20T02:04:00;101369.03;;;0.61;90.74
43745;BME280;29359;53.048;8.732;2022-11-20T02:08:15;101365.53;;;0.59;90.62
43745;BME280;29359;53.048;8.732;2022-11-20T02:10:18;101360.31;;;0.58;90.61
43745;BME280;29359;53.048;8.732;2022-11-20T02:12:20;101358.59;;;0.58;90.47
43745;BME280;29359;53.048;8.732;2022-11-20T02:14:40;101358.59;;;0.58;90.63
43745;BME280;29359;53.048;8.732;2022-11-20T02:16:47;101359.47;;;0.59;90.09
43745;BME280;29359;53.048;8.732;2022-11-20T02:18:49;101357.78;;;0.61;90.44
43745;BME280;29359;53.048;8.732;2022-11-20T02:21:00;101352.63;;;0.64;90.40
43745;BME280;29359;53.048;8.732;2022-11-20T02:23:10;101349.13;;;0.62;90.51
43745;BME280;29359;53.048;8.732;2022-11-20T02:25:13;101349.97;;;0.61;90.50
43745;BME280;29359;53.048;8.732;2022-11-20T02:27:16;101349.09;;;0.60;90.37
43745;BME280;29359;53.048;8.732;2022-11-20T02:29:40;101348.25;;;0.61;90.59
43745;BME280;29359;53.048;8.732;2022-11-20T02:31:43;101343.03;;;0.60;89.93
43745;BME280;29359;53.048;8.732;2022-11-20T02:33:44;101348.19;;;0.58;90.22
43745;BME280;29359;53.048;8.732;2022-11-20T02:35:46;101348.19;;;0.58;90.17
43745;BME280;29359;53.048;8.732;2022-11-20T02:37:50;101343.00;;;0.58;89.77
43745;BME280;29359;53.048;8.732;2022-11-20T02:39:52;101340.44;;;0.60;90.17
43745;BME280;29359;53.048;8.732;2022-11-20T02:41:54;101343.94;;;0.62;89.81
43745;BME280;29359;53.048;8.732;2022-11-20T02:43:56;101333.50;;;0.60;89.62
43745;BME280;29359;53.048;8.732;2022-11-20T02:45:58;101332.66;;;0.61;89.73
43745;BME280;29359;53.048;8.732;2022-11-20T02:48:00;101335.25;;;0.61;90.15
43745;BME280;29359;53.048;8.732;2022-11-20T02:50:02;101333.53;;;0.62;89.96
43745;BME280;29359;53.048;8.732;2022-11-20T02:52:04;101330.09;;;0.63;90.01
43745;BME280;29359;53.048;8.732;2022-11-20T02:54:05;101334.44;;;0.64;89.81
43745;BME280;29359;53.048;8.732;2022-11-20T02:56:07;101325.78;;;0.63;89.64
43745;BME280;29359;53.048;8.732;2022-11-20T02:58:08;101324.94;;;0.65;89.98
43745;BME280;29359;53.048;8.732;2022-11-20T03:00:10;101320.66;;;0.68;89.90
43745;BME280;29359;53.048;8.732;2022-11-20T03:02:12;101326.75;;;0.69;89.29
43745;BME280;29359;53.048;8.732;2022-11-20T03:04:13;101325.00;;;0.68;89.78
43745;BME280;29359;53.048;8.732;2022-11-20T03:06:16;101320.66;;;0.68;89.47
43745;BME280;29359;53.048;8.732;2022-11-20T03:08:18;101321.53;;;0.69;89.72
43745;BME280;29359;53.048;8.732;2022-11-20T03:10:19;101315.53;;;0.71;89.12
43745;BME280;29359;53.048;8.732;2022-11-20T03:12:21;101316.44;;;0.73;89.40
43745;BME280;29359;53.048;8.732;2022-11-20T03:14:22;101312.16;;;0.75;89.20
43745;BME280;29359;53.048;8.732;2022-11-20T03:16:24;101304.38;;;0.77;89.62
43745;BME280;29359;53.048;8.732;2022-11-20T03:18:28;101309.56;;;0.77;89.24
43745;BME280;29359;53.048;8.732;2022-11-20T03:20:30;101308.69;;;0.76;89.29
43745;BME280;29359;53.048;8.732;2022-11-20T03:22:33;101306.16;;;0.79;89.23
43745;BME280;29359;53.048;8.732;2022-11-20T03:24:34;101304.47;;;0.81;88.55
43745;BME280;29359;53.048;8.732;2022-11-20T03:26:36;101304.50;;;0.83;89.17
43745;BME280;29359;53.048;8.732;2022-11-20T03:28:37;101302.81;;;0.86;89.10
43745;BME280;29359;53.048;8.732;2022-11-20T03:30:39;101309.75;;;0.86;88.46
43745;BME280;29359;53.048;8.732;2022-11-20T03:32:41;101300.19;;;0.85;88.93
43745;BME280;29359;53.048;8.732;2022-11-20T03:34:42;101305.38;;;0.83;88.72
43745;BME280;29359;53.048;8.732;2022-11-20T03:36:44;101296.69;;;0.83;88.86
43745;BME280;29359;53.048;8.732;2022-11-20T03:38:46;101289.78;;;0.83;88.62
43745;BME280;29359;53.048;8.732;2022-11-20T03:40:48;101290.66;;;0.84;88.29
43745;BME280;29359;53.048;8.732;2022-11-20T03:42:50;101286.41;;;0.87;88.92
43745;BME280;29359;53.048;8.732;2022-11-20T03:44:51;101295.16;;;0.92;88.46
43745;BME280;29359;53.048;8.732;2022-11-20T03:46:52;101290.84;;;0.93;88.48
43745;BME280;29359;53.048;8.732;2022-11-20T03:48:54;101283.94;;;0.93;88.33
43745;BME280;29359;53.048;8.732;2022-11-20T03:53:16;101278.72;;;0.93;88.18
43745;BME280;29359;53.048;8.732;2022-11-20T03:55:17;101276.13;;;0.93;88.65
43745;BME280;29359;53.048;8.732;2022-11-20T03:57:19;101275.25;;;0.93;88.42
43745;BME280;29359;53.048;8.732;2022-11-20T03:59:20;101276.97;;;0.92;88.22
43745;BME280;29359;53.048;8.732;2022-11-20T04:01:24;101278.75;;;0.95;88.28
43745;BME280;29359;53.048;8.732;2022-11-20T04:03:26;101277.06;;;0.97;88.11
43745;BME280;29359;53.048;8.732;2022-11-20T04:05:28;101275.34;;;0.99;88.17
43745;BME280;29359;53.048;8.732;2022-11-20T04:07:29;101277.97;;;1.01;88.00
43745;BME280;29359;53.048;8.732;2022-11-20T04:09:31;101277.97;;;1.01;87.81
43745;BME280;29359;53.048;8.732;2022-11-20T04:11:34;101274.53;;;1.02;87.90
43745;BME280;29359;53.048;8.732;2022-11-20T04:13:36;101273.69;;;1.03;88.01
43745;BME280;29359;53.048;8.732;2022-11-20T04:15:38;101274.59;;;1.05;87.79
43745;BME280;29359;53.048;8.732;2022-11-20T04:17:39;101277.19;;;1.05;87.50
43745;BME280;29359;53.048;8.732;2022-11-20T04:19:41;101275.41;;;1.02;87.46
43745;BME280;29359;53.048;8.732;2022-11-20T04:21:43;101285.78;;;1.01;87.36
43745;BME280;29359;53.048;8.732;2022-11-20T04:23:45;101273.56;;;0.97;87.14
43745;BME280;29359;53.048;8.732;2022-11-20T04:25:47;101270.94;;;0.93;86.77
43745;BME280;29359;53.048;8.732;2022-11-20T04:27:48;101267.47;;;0.94;87.21
43745;BME280;29359;53.048;8.732;2022-11-20T04:29:49;101267.44;;;0.93;87.49
43745;BME280;29359;53.048;8.732;2022-11-20T04:31:51;101259.69;;;0.94;87.64
43745;BME280;29359;53.048;8.732;2022-11-20T04:33:53;101265.78;;;0.97;87.31
43745;BME280;29359;53.048;8.732;2022-11-20T04:35:55;101263.19;;;0.97;87.45
43745;BME280;29359;53.048;8.732;2022-11-20T04:37:56;101262.31;;;0.96;87.05
43745;BME280;29359;53.048;8.732;2022-11-20T04:39:57;101271.81;;;0.94;87.06
43745;BME280;29359;53.048;8.732;2022-11-20T04:41:59;101282.16;;;0.92;87.05
43745;BME280;29359;53.048;8.732;2022-11-20T04:44:19;101275.22;;;0.91;86.87
43745;BME280;29359;53.048;8.732;2022-11-20T04:46:21;101271.72;;;0.89;87.00
43745;BME280;29359;53.048;8.732;2022-11-20T04:48:23;101273.44;;;0.89;86.91
43745;BME280;29359;53.048;8.732;2022-11-20T04:50:25;101268.25;;;0.89;86.68
43745;BME280;29359;53.048;8.732;2022-11-20T04:52:26;101269.00;;;0.85;86.73
43745;BME280;29359;53.048;8.732;2022-11-20T04:54:28;101270.72;;;0.84;87.21
43745;BME280;29359;53.048;8.732;2022-11-20T04:56:29;101264.66;;;0.84;86.90
43745;BME280;29359;53.048;8.732;2022-11-20T04:58:31;101267.28;;;0.85;86.87
43745;BME280;29359;53.048;8.732;2022-11-20T05:00:33;101257.75;;;0.84;86.61
43745;BME280;29359;53.048;8.732;2022-11-20T05:02:35;101251.66;;;0.84;87.05
43745;BME280;29359;53.048;8.732;2022-11-20T05:04:36;101252.56;;;0.86;87.01
43745;BME280;29359;53.048;8.732;2022-11-20T05:06:38;101264.75;;;0.87;86.20
43745;BME280;29359;53.048;8.732;2022-11-20T05:08:40;101256.00;;;0.85;86.20
43745;BME280;29359;53.048;8.732;2022-11-20T05:10:42;101249.94;;;0.84;86.82
43745;BME280;29359;53.048;8.732;2022-11-20T05:12:43;101251.75;;;0.87;86.29
43745;BME280;29359;53.048;8.732;2022-11-20T05:14:45;101249.16;;;0.87;87.01
43745;BME280;29359;53.048;8.732;2022-11-20T05:16:46;101249.19;;;0.88;86.60
43745;BME280;29359;53.048;8.732;2022-11-20T05:18:49;101250.03;;;0.87;86.29
43745;BME280;29359;53.048;8.732;2022-11-20T05:20:54;101258.69;;;0.88;86.57
43745;BME280;29359;53.048;8.732;2022-11-20T05:22:57;101250.84;;;0.86;86.12
43745;BME280;29359;53.048;8.732;2022-11-20T05:24:58;101249.09;;;0.85;86.00
43745;BME280;29359;53.048;8.732;2022-11-20T05:27:00;101243.91;;;0.85;85.92
43745;BME280;29359;53.048;8.732;2022-11-20T05:29:01;101252.56;;;0.86;85.96
43745;BME280;29359;53.048;8.732;2022-11-20T05:31:05;101245.72;;;0.89;85.79
43745;BME280;29359;53.048;8.732;2022-11-20T05:33:07;101247.47;;;0.90;86.45
43745;BME280;29359;53.048;8.732;2022-11-20T05:35:09;101246.59;;;0.90;85.70
43745;BME280;29359;53.048;8.732;2022-11-20T05:37:10;101246.59;;;0.90;86.09
43745;BME280;29359;53.048;8.732;2022-11-20T05:39:12;101251.78;;;0.88;85.98
43745;BME280;29359;53.048;8.732;2022-11-20T05:41:15;101248.31;;;0.89;86.32
43745;BME280;29359;53.048;8.732;2022-11-20T05:43:18;101236.19;;;0.90;86.08
43745;BME280;29359;53.048;8.732;2022-11-20T05:45:19;101245.78;;;0.92;86.65
43745;BME280;29359;53.048;8.732;2022-11-20T05:47:22;101244.06;;;0.93;86.67
43745;BME280;29359;53.048;8.732;2022-11-20T05:49:23;101243.22;;;0.96;86.63
43745;BME280;29359;53.048;8.732;2022-11-20T05:51:26;101240.63;;;0.96;86.14
43745;BME280;29359;53.048;8.732;2022-11-20T05:53:28;101239.78;;;0.97;86.46
43745;BME280;29359;53.048;8.732;2022-11-20T05:55:29;101244.13;;;0.98;86.63
43745;BME280;29359;53.048;8.732;2022-11-20T05:57:31;101239.00;;;1.01;86.42
43745;BME280;29359;53.048;8.732;2022-11-20T05:59:33;101232.03;;;1.00;86.88
43745;BME280;29359;53.048;8.732;2022-11-20T06:01:34;101236.38;;;0.99;86.75
43745;BME280;29359;53.048;8.732;2022-11-20T06:03:38;101227.69;;;0.99;86.78
43745;BME280;29359;53.048;8.732;2022-11-20T06:05:40;101224.19;;;0.97;86.93
43745;BME280;29359;53.048;8.732;2022-11-20T06:07:41;101231.97;;;0.95;86.54
43745;BME280;29359;53.048;8.732;2022-11-20T06:09:43;101225.03;;;0.96;86.36
43745;BME280;29359;53.048;8.732;2022-11-20T06:11:44;101220.72;;;0.96;86.75
43745;BME280;29359;53.048;8.732;2022-11-20T06:13:46;101221.59;;;0.97;86.48
43745;BME280;29359;53.048;8.732;2022-11-20T06:15:52;101208.59;;;0.97;86.66
43745;BME280;29359;53.048;8.732;2022-11-20T06:17:54;101215.53;;;0.98;86.87
43745;BME280;29359;53.048;8.732;2022-11-20T06:19:56;101206.03;;;1.00;86.80
43745;BME280;29359;53.048;8.732;2022-11-20T06:21:58;101213.84;;;1.00;87.19
43745;BME280;29359;53.048;8.732;2022-11-20T06:23:59;101212.13;;;1.02;87.01
43745;BME280;29359;53.048;8.732;2022-11-20T06:26:06;101210.41;;;1.02;86.91
43745;BME280;29359;53.048;8.732;2022-11-20T06:28:08;101201.75;;;1.02;87.33
43745;BME280;29359;53.048;8.732;2022-11-20T06:30:10;101206.00;;;0.98;86.99
43745;BME280;29359;53.048;8.732;2022-11-20T06:32:12;101205.13;;;0.98;86.89
43745;BME280;29359;53.048;8.732;2022-11-20T06:34:13;101203.44;;;1.00;87.37
43745;BME280;29359;53.048;8.732;2022-11-20T06:36:17;101202.59;;;1.01;86.88
43745;BME280;29359;53.048;8.732;2022-11-20T06:38:19;101190.47;;;1.01;87.52
43745;BME280;29359;53.048;8.732;2022-11-20T06:40:21;101194.81;;;1.02;87.19
43745;BME280;29359;53.048;8.732;2022-11-20T06:42:22;101215.66;;;1.05;87.41
43745;BME280;29359;53.048;8.732;2022-11-20T06:44:24;101218.16;;;0.99;86.75
43745;BME280;29359;53.048;8.732;2022-11-20T06:46:25;101215.50;;;0.94;86.58
43745;BME280;29359;53.048;8.732;2022-11-20T06:48:28;101216.31;;;0.92;86.94
43745;BME280;29359;53.048;8.732;2022-11-20T06:50:29;101216.31;;;0.92;87.45
43745;BME280;29359;53.048;8.732;2022-11-20T06:52:31;101214.59;;;0.92;86.89
43745;BME280;29359;53.048;8.732;2022-11-20T06:54:32;101215.47;;;0.93;87.62
43745;BME280;29359;53.048;8.732;2022-11-20T06:56:34;101211.13;;;0.92;87.31
43745;BME280;29359;53.048;8.732;2022-11-20T06:58:36;101211.09;;;0.90;87.38
43745;BME280;29359;53.048;8.732;2022-11-20T07:00:38;101209.31;;;0.88;87.33
43745;BME280;29359;53.048;8.732;2022-11-20T07:02:39;101199.81;;;0.90;87.35
43745;BME280;29359;53.048;8.732;2022-11-20T07:04:41;101209.38;;;0.91;87.56
43745;BME280;29359;53.048;8.732;2022-11-20T07:06:42;101205.91;;;0.92;87.42
43745;BME280;29359;53.048;8.732;2022-11-20T07:08:44;101197.25;;;0.91;86.99
43745;BME280;29359;53.048;8.732;2022-11-20T07:10:45;101187.66;;;0.87;87.25
43745;BME280;29359;53.048;8.732;2022-11-20T07:12:51;101181.47;;;0.82;87.14
43745;BME280;29359;53.048;8.732;2022-11-20T07:14:52;101177.09;;;0.80;87.53
43745;BME280;29359;53.048;8.732;2022-11-20T07:16:54;101174.44;;;0.77;87.59
43745;BME280;29359;53.048;8.732;2022-11-20T07:18:56;101172.69;;;0.76;87.57
43745;BME280;29359;53.048;8.732;2022-11-20T07:21:02;101197.91;;;0.81;87.63
43745;BME280;29359;53.048;8.732;2022-11-20T07:23:03;101201.41;;;0.83;87.44
43745;BME280;29359;53.048;8.732;2022-11-20T07:25:05;101203.09;;;0.81;87.63
43745;BME280;29359;53.048;8.732;2022-11-20T07:27:07;101205.66;;;0.78;87.67
43745;BME280;29359;53.048;8.732;2022-11-20T07:29:09;101213.41;;;0.75;87.08
43745;BME280;29359;53.048;8.732;2022-11-20T07:31:11;101207.16;;;0.66;87.35
43745;BME280;29359;53.048;8.732;2022-11-20T07:33:20;101214.94;;;0.64;86.91
43745;BME280;29359;53.048;8.732;2022-11-20T07:35:22;101211.44;;;0.62;87.48
43745;BME280;29359;53.048;8.732;2022-11-20T07:37:24;101214.88;;;0.61;87.47
43745;BME280;29359;53.048;8.732;2022-11-20T07:39:25;101215.72;;;0.60;88.14
43745;BME280;29359;53.048;8.732;2022-11-20T07:41:27;101209.66;;;0.59;87.64
43745;BME280;29359;53.048;8.732;2022-11-20T07:43:29;101207.09;;;0.61;87.89
43745;BME280;29359;53.048;8.732;2022-11-20T07:45:30;101210.56;;;0.61;88.01
43745;BME280;29359;53.048;8.732;2022-11-20T07:47:36;101206.28;;;0.65;87.62
43745;BME280;29359;53.048;8.732;2022-11-20T07:49:37;101206.31;;;0.67;88.13
43745;BME280;29359;53.048;8.732;2022-11-20T07:51:39;101199.41;;;0.67;87.92
43745;BME280;29359;53.048;8.732;2022-11-20T07:53:40;101202.00;;;0.67;87.38
43745;BME280;29359;53.048;8.732;2022-11-20T07:55:42;101201.13;;;0.67;87.37
43745;BME280;29359;53.048;8.732;2022-11-20T07:57:43;101215.00;;;0.69;87.63
43745;BME280;29359;53.048;8.732;2022-11-20T07:59:45;101215.00;;;0.67;87.26
43745;BME280;29359;53.048;8.732;2022-11-20T08:01:47;101215.00;;;0.67;86.99
43745;BME280;29359;53.048;8.732;2022-11-20T08:03:48;101210.63;;;0.66;86.88
43745;BME280;29359;53.048;8.732;2022-11-20T08:05:50;101209.81;;;0.69;87.04
43745;BME280;29359;53.048;8.732;2022-11-20T08:07:51;101209.00;;;0.71;87.51
43745;BME280;29359;53.048;8.732;2022-11-20T08:09:53;101211.59;;;0.71;87.47
43745;BME280;29359;53.048;8.732;2022-11-20T08:11:54;101209.94;;;0.76;87.28
43745;BME280;29359;53.048;8.732;2022-11-20T08:14:15;101213.44;;;0.78;87.15
43745;BME280;29359;53.048;8.732;2022-11-20T08:16:17;101215.25;;;0.82;87.27
43745;BME280;29359;53.048;8.732;2022-11-20T08:18:18;101218.75;;;0.84;86.97
43745;BME280;29359;53.048;8.732;2022-11-20T08:20:35;101215.28;;;0.84;86.97
43745;BME280;29359;53.048;8.732;2022-11-20T08:22:37;101207.50;;;0.85;86.61
43745;BME280;29359;53.048;8.732;2022-11-20T08:24:38;101215.38;;;0.88;86.45
43745;BME280;29359;53.048;8.732;2022-11-20T08:26:40;101216.31;;;0.92;86.21
43745;BME280;29359;53.048;8.732;2022-11-20T08:28:42;101212.88;;;0.94;86.13
43745;BME280;29359;53.048;8.732;2022-11-20T08:30:44;101215.50;;;0.94;86.04
43745;BME280;29359;53.048;8.732;2022-11-20T08:32:47;101218.97;;;0.95;85.60
43745;BME280;29359;53.048;8.732;2022-11-20T08:34:48;101213.78;;;0.97;85.67
43745;BME280;29359;53.048;8.732;2022-11-20T08:36:49;101209.47;;;0.97;85.56
43745;BME280;29359;53.048;8.732;2022-11-20T08:38:53;101212.94;;;0.98;85.32
43745;BME280;29359;53.048;8.732;2022-11-20T08:40:59;101216.44;;;1.00;84.75
43745;BME280;29359;53.048;8.732;2022-11-20T08:43:19;101210.38;;;1.01;84.88
43745;BME280;29359;53.048;8.732;2022-11-20T08:45:20;101216.47;;;1.01;84.75
43745;BME280;29359;53.048;8.732;2022-11-20T08:47:22;101213.91;;;1.04;85.30
43745;BME280;29359;53.048;8.732;2022-11-20T08:49:23;101217.38;;;1.03;84.97
43745;BME280;29359;53.048;8.732;2022-11-20T08:51:25;101217.41;;;1.06;84.94
43745;BME280;29359;53.048;8.732;2022-11-20T08:53:27;101221.75;;;1.07;84.75
43745;BME280;29359;53.048;8.732;2022-11-20T08:55:28;101217.41;;;1.06;84.24
43745;BME280;29359;53.048;8.732;2022-11-20T08:57:34;101215.69;;;1.07;84.37
43745;BME280;29359;53.048;8.732;2022-11-20T08:59:36;101218.31;;;1.08;84.22
43745;BME280;29359;53.048;8.732;2022-11-20T09:01:58;101211.38;;;1.09;84.66
43745;BME280;29359;53.048;8.732;2022-11-20T09:03:59;101215.72;;;1.10;84.01
43745;BME280;29359;53.048;8.732;2022-11-20T09:06:03;101210.56;;;1.11;84.18
43745;BME280;29359;53.048;8.732;2022-11-20T09:08:04;101219.31;;;1.16;84.28
43745;BME280;29359;53.048;8.732;2022-11-20T09:10:06;101220.22;;;1.20;84.29
43745;BME280;29359;53.048;8.732;2022-11-20T09:12:25;101217.72;;;1.26;84.42
43745;BME280;29359;53.048;8.732;2022-11-20T09:14:27;101218.66;;;1.30;84.58
43745;BME280;29359;53.048;8.732;2022-11-20T09:16:30;101220.47;;;1.34;84.02
43745;BME280;29359;53.048;8.732;2022-11-20T09:18:32;101224.81;;;1.35;83.74
43745;BME280;29359;53.048;8.732;2022-11-20T09:20:34;101231.78;;;1.37;84.10
43745;BME280;29359;53.048;8.732;2022-11-20T09:22:39;101229.19;;;1.37;84.08
43745;BME280;29359;53.048;8.732;2022-11-20T09:24:41;101226.63;;;1.39;84.24
43745;BME280;29359;53.048;8.732;2022-11-20T09:26:44;101226.63;;;1.40;84.06
43745;BME280;29359;53.048;8.732;2022-11-20T09:28:45;101223.13;;;1.38;83.21
43745;BME280;29359;53.048;8.732;2022-11-20T09:30:47;101227.44;;;1.36;82.72
43745;BME280;29359;53.048;8.732;2022-11-20T09:32:49;101230.91;;;1.37;83.35
43745;BME280;29359;53.048;8.732;2022-11-20T09:34:50;101220.53;;;1.37;83.46
43745;BME280;29359;53.048;8.732;2022-11-20T09:36:52;101224.00;;;1.37;83.29
43745;BME280;29359;53.048;8.732;2022-11-20T09:38:53;101225.72;;;1.37;83.43
43745;BME280;29359;53.048;8.732;2022-11-20T09:41:04;101221.34;;;1.34;83.85
43745;BME280;29359;53.048;8.732;2022-11-20T09:50:32;101215.16;;;1.29;84.24
43745;BME280;29359;53.048;8.732;2022-11-20T09:54:52;101217.75;;;1.27;84.93
43745;BME280;29359;53.048;8.732;2022-11-20T09:57:03;101212.56;;;1.29;85.22
43745;BME280;29359;53.048;8.732;2022-11-20T09:59:10;101202.25;;;1.32;85.02
43745;BME280;29359;53.048;8.732;2022-11-20T10:01:17;101209.25;;;1.36;85.39
43745;BME280;29359;53.048;8.732;2022-11-20T10:03:31;101210.06;;;1.34;85.28
43745;BME280;29359;53.048;8.732;2022-11-20T10:05:42;101208.22;;;1.28;85.26
43745;BME280;29359;53.048;8.732;2022-11-20T10:07:52;101203.00;;;1.26;85.07
43745;BME280;29359;53.048;8.732;2022-11-20T10:09:56;101209.91;;;1.26;85.51
43745;BME280;29359;53.048;8.732;2022-11-20T10:16:54;101204.56;;;1.17;85.48
43745;BME280;29359;53.048;8.732;2022-11-20T10:28:10;101196.00;;;1.22;86.94
43745;BME280;29359;53.048;8.732;2022-11-20T10:30:16;101198.66;;;1.27;86.97
43745;BME280;29359;53.048;8.732;2022-11-20T10:32:20;101192.63;;;1.30;87.45
43745;BME280;29359;53.048;8.732;2022-11-20T10:34:30;101189.25;;;1.32;87.34
43745;BME280;29359;53.048;8.732;2022-11-20T10:36:40;101189.31;;;1.37;87.11
43745;BME280;29359;53.048;8.732;2022-11-20T10:38:55;101185.88;;;1.41;87.26
43745;BME280;29359;53.048;8.732;2022-11-20T10:41:01;101185.06;;;1.43;86.92
43745;BME280;29359;53.048;8.732;2022-11-20T10:43:33;101189.41;;;1.44;86.33
43745;BME280;29359;53.048;8.732;2022-11-20T10:47:42;101182.47;;;1.45;85.27
43745;BME280;29359;53.048;8.732;2022-11-20T10:49:47;101181.66;;;1.47;85.61
43745;BME280;29359;53.048;8.732;2022-11-20T10:52:13;101183.41;;;1.48;85.25
43745;BME280;29359;53.048;8.732;2022-11-20T10:54:33;101186.03;;;1.50;84.46
43745;BME280;29359;53.048;8.732;2022-11-20T11:01:18;101179.09;;;1.52;84.50
43745;BME280;29359;53.048;8.732;2022-11-20T11:03:29;101179.13;;;1.53;84.25
43745;BME280;29359;53.048;8.732;2022-11-20T11:05:37;101172.22;;;1.55;83.94
43745;BME280;29359;53.048;8.732;2022-11-20T11:07:41;101172.25;;;1.58;83.89
43745;BME280;29359;53.048;8.732;2022-11-20T11:09:48;101171.41;;;1.60;82.97
43745;BME280;29359;53.048;8.732;2022-11-20T11:11:50;101157.53;;;1.61;82.97
43745;BME280;29359;53.048;8.732;2022-11-20T11:13:52;101166.19;;;1.60;82.34
43745;BME280;29359;53.048;8.732;2022-11-20T11:15:55;101170.56;;;1.61;82.79
43745;BME280;29359;53.048;8.732;2022-11-20T11:17:57;101165.31;;;1.57;81.49
43745;BME280;29359;53.048;8.732;2022-11-20T11:22:00;101158.38;;;1.58;80.89
43745;BME280;29359;53.048;8.732;2022-11-20T11:24:03;101157.56;;;1.62;81.28
43745;BME280;29359;53.048;8.732;2022-11-20T11:26:25;101161.94;;;1.65;80.99
43745;BME280;29359;53.048;8.732;2022-11-20T11:28:28;101154.13;;;1.65;80.56
43745;BME280;29359;53.048;8.732;2022-11-20T11:30:41;101154.16;;;1.66;80.42
43745;BME280;29359;53.048;8.732;2022-11-20T11:32:43;101146.34;;;1.68;80.75